sensor_id;sensor_type;location;lat;lon;timestamp;P1;durP1;ratioP1;P2;durP2;ratioP2
5173;SDS011;2606;50.934;6.934;2023-03-05T00:02:02;7.10;;;2.80;;
5173;SDS011;2606;50.934;6.934;2023-03-05T00:04:28;4.17;;;1.20;;
5173;SDS011;2606;50.934;6.934;2023-03-05T00:06:54;8.90;;;1.60;;
5173;SDS011;2606;50.934;6.934;2023-03-05T00:09:19;4.97;;;1.27;;
5173;SDS011;2606;50.934;6.934;2023-03-05T00:11:45;5.90;;;2.20;;
5173;SDS011;2606;50.934;6.934;2023-03-05T00:14:11;6.10;;;1.70;;
5173;SDS011;2606;50.934;6.934;2023-03-05T00:16:37;3.50;;;1.87;;
5173;SDS011;2606;50.934;6.934;2023-03-05T00:19:03;5.23;;;2.43;;
5173;SDS011;2606;50.934;6.934;2023-03-05T00:21:36;15.33;;;3.50;;
5173;SDS011;2606;50.934;6.934;2023-03-05T00:24:05;5.47;;;2.77;;
5173;SDS011;2606;50.934;6.934;2023-03-05T00:26:34;8.80;;;2.70;;
5173;SDS011;2606;50.934;6.934;2023-03-05T00:29:02;6.50;;;1.87;;
5173;SDS011;2606;50.934;6.934;2023-03-05T00:31:29;10.87;;;1.43;;
5173;SDS011;2606;50.934;6.934;2023-03-05T00:33:57;3.67;;;1.20;;
5173;SDS011;2606;50.934;6.934;2023-03-05T00:36:25;5.70;;;1.43;;
5173;SDS011;2606;50.934;6.934;2023-03-05T00:38:51;5.33;;;1.90;;
5173;SDS011;2606;50.934;6.934;2023-03-05T00:41:17;11.20;;;1.77;;
5173;SDS011;2606;50.934;6.934;2023-03-05T00:43:42;12.13;;;2.27;;
5173;SDS011;2606;50.934;6.934;2023-03-05T00:46:08;7.93;;;1.60;;
5173;SDS011;2606;50.934;6.934;2023-03-05T00:48:34;1.70;;;1.33;;
5173;SDS011;2606;50.934;6.934;2023-03-05T00:51:00;6.23;;;1.73;;
5173;SDS011;2606;50.934;6.934;2023-03-05T00:53:25;5.63;;;2.13;;
5173;SDS011;2606;50.934;6.934;2023-03-05T00:55:51;11.63;;;2.03;;
5173;SDS011;2606;50.934;6.934;2023-03-05T00:58:16;4.20;;;1.77;;
5173;SDS011;2606;50.934;6.934;2023-03-05T01:00:42;7.07;;;1.70;;
5173;SDS011;2606;50.934;6.934;2023-03-05T01:03:08;6.60;;;1.67;;
5173;SDS011;2606;50.934;6.934;2023-03-05T01:05:34;12.80;;;1.67;;
5173;SDS011;2606;50.934;6.934;2023-03-05T01:07:59;3.03;;;1.20;;
5173;SDS011;2606;50.934;6.934;2023-03-05T01:10:25;11.03;;;1.30;;
5173;SDS011;2606;50.934;6.934;2023-03-05T01:12:54;6.90;;;1.30;;
5173;SDS011;2606;50.934;6.934;2023-03-05T01:15:21;6.00;;;1.67;;
5173;SDS011;2606;50.934;6.934;2023-03-05T01:17:47;10.23;;;1.63;;
5173;SDS011;2606;50.934;6.934;2023-03-05T01:20:14;4.93;;;1.30;;
5173;SDS011;2606;50.934;6.934;2023-03-05T01:22:41;8.40;;;1.80;;
5173;SDS011;2606;50.934;6.934;2023-03-05T01:25:06;3.43;;;1.13;;
5173;SDS011;2606;50.934;6.934;2023-03-05T01:27:32;2.60;;;1.03;;
5173;SDS011;2606;50.934;6.934;2023-03-05T01:29:59;6.95;;;1.60;;
5173;SDS011;2606;50.934;6.934;2023-03-05T01:32:25;6.13;;;2.53;;
5173;SDS011;2606;50.934;6.934;2023-03-05T01:34:50;3.37;;;1.30;;
5173;SDS011;2606;50.934;6.934;2023-03-05T01:37:16;2.20;;;1.80;;
5173;SDS011;2606;50.934;6.934;2023-03-05T01:39:41;7.23;;;1.60;;
5173;SDS011;2606;50.934;6.934;2023-03-05T01:42:07;7.33;;;1.33;;
5173;SDS011;2606;50.934;6.934;2023-03-05T01:44:33;8.87;;;1.33;;
5173;SDS011;2606;50.934;6.934;2023-03-05T01:46:59;7.77;;;2.10;;
5173;SDS011;2606;50.934;6.934;2023-03-05T01:49:25;3.43;;;1.40;;
5173;SDS011;2606;50.934;6.934;2023-03-05T01:54:24;4.10;;;1.43;;
5173;SDS011;2606;50.934;6.934;2023-03-05T01:56:54;5.10;;;1.50;;
5173;SDS011;2606;50.934;6.934;2023-03-05T01:59:23;7.90;;;1.73;;
5173;SDS011;2606;50.934;6.934;2023-03-05T02:01:50;1.77;;;1.10;;
5173;SDS011;2606;50.934;6.934;2023-03-05T02:04:19;6.60;;;1.60;;
5173;SDS011;2606;50.934;6.934;2023-03-05T02:06:47;7.17;;;1.67;;
5173;SDS011;2606;50.934;6.934;2023-03-05T02:09:13;3.67;;;1.40;;
5173;SDS011;2606;50.934;6.934;2023-03-05T02:11:39;8.63;;;1.73;;
5173;SDS011;2606;50.934;6.934;2023-03-05T02:14:05;4.40;;;1.23;;
5173;SDS011;2606;50.934;6.934;2023-03-05T02:16:33;4.90;;;1.60;;
5173;SDS011;2606;50.934;6.934;2023-03-05T02:19:02;8.93;;;2.17;;
5173;SDS011;2606;50.934;6.934;2023-03-05T02:21:36;5.40;;;1.50;;
5173;SDS011;2606;50.934;6.934;2023-03-05T02:24:04;11.27;;;1.67;;
5173;SDS011;2606;50.934;6.934;2023-03-05T02:26:30;8.70;;;1.50;;
5173;SDS011;2606;50.934;6.934;2023-03-05T02:28:56;3.70;;;1.10;;
5173;SDS011;2606;50.934;6.934;2023-03-05T02:31:25;3.00;;;1.43;;
5173;SDS011;2606;50.934;6.934;2023-03-05T02:33:52;7.53;;;1.20;;
5173;SDS011;2606;50.934;6.934;2023-03-05T02:36:19;4.60;;;1.50;;
5173;SDS011;2606;50.934;6.934;2023-03-05T02:38:46;10.50;;;1.40;;
5173;SDS011;2606;50.934;6.934;2023-03-05T02:41:12;7.50;;;1.30;;
5173;SDS011;2606;50.934;6.934;2023-03-05T02:43:38;2.50;;;1.30;;
5173;SDS011;2606;50.934;6.934;2023-03-05T02:46:04;5.43;;;1.47;;
5173;SDS011;2606;50.934;6.934;2023-03-05T02:48:30;5.33;;;1.33;;
5173;SDS011;2606;50.934;6.934;2023-03-05T02:50:56;3.60;;;1.20;;
5173;SDS011;2606;50.934;6.934;2023-03-05T02:53:22;3.23;;;1.03;;
5173;SDS011;2606;50.934;6.934;2023-03-05T02:55:48;3.53;;;1.20;;
5173;SDS011;2606;50.934;6.934;2023-03-05T02:58:14;4.63;;;1.33;;
5173;SDS011;2606;50.934;6.934;2023-03-05T03:00:41;7.70;;;2.70;;
5173;SDS011;2606;50.934;6.934;2023-03-05T03:03:07;7.33;;;1.47;;
5173;SDS011;2606;50.934;6.934;2023-03-05T03:05:33;6.63;;;1.53;;
5173;SDS011;2606;50.934;6.934;2023-03-05T03:08:00;4.70;;;1.37;;
5173;SDS011;2606;50.934;6.934;2023-03-05T03:10:25;2.40;;;1.40;;
5173;SDS011;2606;50.934;6.934;2023-03-05T03:12:51;2.50;;;1.50;;
5173;SDS011;2606;50.934;6.934;2023-03-05T03:15:17;5.03;;;1.47;;
5173;SDS011;2606;50.934;6.934;2023-03-05T03:17:43;5.23;;;1.50;;
5173;SDS011;2606;50.934;6.934;2023-03-05T03:20:09;3.70;;;1.20;;
5173;SDS011;2606;50.934;6.934;2023-03-05T03:22:38;6.57;;;1.67;;
5173;SDS011;2606;50.934;6.934;2023-03-05T03:25:04;4.67;;;1.20;;
5173;SDS011;2606;50.934;6.934;2023-03-05T03:27:30;10.43;;;1.60;;
5173;SDS011;2606;50.934;6.934;2023-03-05T03:29:56;1.13;;;0.83;;
5173;SDS011;2606;50.934;6.934;2023-03-05T03:32:26;5.73;;;1.23;;
5173;SDS011;2606;50.934;6.934;2023-03-05T03:34:52;4.23;;;1.20;;
5173;SDS011;2606;50.934;6.934;2023-03-05T03:37:18;7.60;;;1.63;;
5173;SDS011;2606;50.934;6.934;2023-03-05T03:39:43;2.90;;;1.30;;
5173;SDS011;2606;50.934;6.934;2023-03-05T03:42:09;4.53;;;1.30;;
5173;SDS011;2606;50.934;6.934;2023-03-05T03:44:34;3.50;;;1.50;;
5173;SDS011;2606;50.934;6.934;2023-03-05T03:47:01;3.10;;;1.00;;
5173;SDS011;2606;50.934;6.934;2023-03-05T03:49:27;3.60;;;1.30;;
5173;SDS011;2606;50.934;6.934;2023-03-05T03:51:53;6.03;;;1.10;;
5173;SDS011;2606;50.934;6.934;2023-03-05T03:54:20;1.73;;;1.00;;
5173;SDS011;2606;50.934;6.934;2023-03-05T03:56:46;3.77;;;1.20;;
5173;SDS011;2606;50.934;6.934;2023-03-05T03:59:12;2.63;;;1.00;;
5173;SDS011;2606;50.934;6.934;2023-03-05T04:01:41;1.23;;;0.90;;
5173;SDS011;2606;50.934;6.934;2023-03-05T04:04:18;9.73;;;1.53;;
5173;SDS011;2606;50.934;6.934;2023-03-05T04:09:55;5.03;;;1.40;;
5173;SDS011;2606;50.934;6.934;2023-03-05T04:12:23;3.60;;;1.63;;
5173;SDS011;2606;50.934;6.934;2023-03-05T04:14:58;4.33;;;1.27;;
5173;SDS011;2606;50.934;6.934;2023-03-05T04:17:23;5.27;;;1.20;;
5173;SDS011;2606;50.934;6.934;2023-03-05T04:19:49;3.50;;;1.00;;
5173;SDS011;2606;50.934;6.934;2023-03-05T04:22:15;8.13;;;1.83;;
5173;SDS011;2606;50.934;6.934;2023-03-05T04:24:42;3.00;;;1.63;;
5173;SDS011;2606;50.934;6.934;2023-03-05T04:27:08;3.83;;;1.50;;
5173;SDS011;2606;50.934;6.934;2023-03-05T04:29:33;7.63;;;1.40;;
5173;SDS011;2606;50.934;6.934;2023-03-05T04:31:59;7.60;;;2.50;;
5173;SDS011;2606;50.934;6.934;2023-03-05T04:34:25;4.57;;;2.13;;
5173;SDS011;2606;50.934;6.934;2023-03-05T04:36:51;4.33;;;1.17;;
5173;SDS011;2606;50.934;6.934;2023-03-05T04:39:16;2.23;;;1.27;;
5173;SDS011;2606;50.934;6.934;2023-03-05T04:41:44;5.70;;;1.70;;
5173;SDS011;2606;50.934;6.934;2023-03-05T04:44:13;3.90;;;1.43;;
5173;SDS011;2606;50.934;6.934;2023-03-05T04:46:39;8.63;;;1.40;;
5173;SDS011;2606;50.934;6.934;2023-03-05T04:49:04;4.00;;;1.63;;
5173;SDS011;2606;50.934;6.934;2023-03-05T04:51:30;2.90;;;1.10;;
5173;SDS011;2606;50.934;6.934;2023-03-05T04:53:56;4.47;;;1.37;;
5173;SDS011;2606;50.934;6.934;2023-03-05T04:56:21;3.73;;;1.27;;
5173;SDS011;2606;50.934;6.934;2023-03-05T04:58:47;5.20;;;1.47;;
5173;SDS011;2606;50.934;6.934;2023-03-05T05:01:13;6.93;;;1.70;;
5173;SDS011;2606;50.934;6.934;2023-03-05T05:03:39;9.20;;;1.60;;
5173;SDS011;2606;50.934;6.934;2023-03-05T05:06:04;4.70;;;1.20;;
5173;SDS011;2606;50.934;6.934;2023-03-05T05:08:30;4.83;;;1.23;;
5173;SDS011;2606;50.934;6.934;2023-03-05T05:11:00;13.70;;;1.90;;
5173;SDS011;2606;50.934;6.934;2023-03-05T05:13:27;4.07;;;1.13;;
5173;SDS011;2606;50.934;6.934;2023-03-05T05:15:54;6.10;;;1.70;;
5173;SDS011;2606;50.934;6.934;2023-03-05T05:18:20;4.63;;;1.30;;
5173;SDS011;2606;50.934;6.934;2023-03-05T05:20:46;5.97;;;1.30;;
5173;SDS011;2606;50.934;6.934;2023-03-05T05:23:12;5.37;;;1.40;;
5173;SDS011;2606;50.934;6.934;2023-03-05T05:25:37;3.63;;;1.00;;
5173;SDS011;2606;50.934;6.934;2023-03-05T05:28:03;3.20;;;1.53;;
5173;SDS011;2606;50.934;6.934;2023-03-05T05:30:29;7.77;;;2.00;;
5173;SDS011;2606;50.934;6.934;2023-03-05T05:32:55;6.63;;;1.43;;
5173;SDS011;2606;50.934;6.934;2023-03-05T05:35:20;5.00;;;1.63;;
5173;SDS011;2606;50.934;6.934;2023-03-05T05:37:46;4.13;;;1.43;;
5173;SDS011;2606;50.934;6.934;2023-03-05T05:40:12;4.23;;;1.33;;
5173;SDS011;2606;50.934;6.934;2023-03-05T05:42:37;6.20;;;1.83;;
5173;SDS011;2606;50.934;6.934;2023-03-05T05:45:03;8.10;;;1.50;;
5173;SDS011;2606;50.934;6.934;2023-03-05T05:47:29;7.87;;;1.70;;
5173;SDS011;2606;50.934;6.934;2023-03-05T05:49:55;7.43;;;1.60;;
5173;SDS011;2606;50.934;6.934;2023-03-05T05:52:20;3.90;;;1.50;;
5173;SDS011;2606;50.934;6.934;2023-03-05T05:54:46;3.47;;;1.27;;
5173;SDS011;2606;50.934;6.934;2023-03-05T05:57:12;7.77;;;1.70;;
5173;SDS011;2606;50.934;6.934;2023-03-05T05:59:38;6.50;;;2.17;;
5173;SDS011;2606;50.934;6.934;2023-03-05T06:02:04;4.37;;;1.43;;
5173;SDS011;2606;50.934;6.934;2023-03-05T06:04:31;8.47;;;1.70;;
5173;SDS011;2606;50.934;6.934;2023-03-05T06:06:58;4.23;;;1.20;;
5173;SDS011;2606;50.934;6.934;2023-03-05T06:09:24;8.00;;;1.73;;
5173;SDS011;2606;50.934;6.934;2023-03-05T06:11:49;17.83;;;1.70;;
5173;SDS011;2606;50.934;6.934;2023-03-05T06:14:15;4.67;;;1.40;;
5173;SDS011;2606;50.934;6.934;2023-03-05T06:16:41;7.93;;;1.87;;
5173;SDS011;2606;50.934;6.934;2023-03-05T06:19:07;5.77;;;1.80;;
5173;SDS011;2606;50.934;6.934;2023-03-05T06:21:36;4.10;;;1.73;;
5173;SDS011;2606;50.934;6.934;2023-03-05T06:24:01;3.20;;;1.60;;
5173;SDS011;2606;50.934;6.934;2023-03-05T06:26:27;4.63;;;1.70;;
5173;SDS011;2606;50.934;6.934;2023-03-05T06:28:53;6.20;;;1.90;;
5173;SDS011;2606;50.934;6.934;2023-03-05T06:31:23;11.73;;;1.67;;
5173;SDS011;2606;50.934;6.934;2023-03-05T06:33:50;8.43;;;2.23;;
5173;SDS011;2606;50.934;6.934;2023-03-05T06:36:18;4.33;;;1.50;;
5173;SDS011;2606;50.934;6.934;2023-03-05T06:38:45;11.10;;;2.10;;
5173;SDS011;2606;50.934;6.934;2023-03-05T06:41:14;5.33;;;1.97;;
5173;SDS011;2606;50.934;6.934;2023-03-05T06:43:42;7.40;;;2.60;;
5173;SDS011;2606;50.934;6.934;2023-03-05T06:46:13;5.47;;;1.50;;
5173;SDS011;2606;50.934;6.934;2023-03-05T06:48:39;4.57;;;1.60;;
5173;SDS011;2606;50.934;6.934;2023-03-05T06:51:10;6.23;;;2.27;;
5173;SDS011;2606;50.934;6.934;2023-03-05T06:53:44;5.30;;;2.00;;
5173;SDS011;2606;50.934;6.934;2023-03-05T06:56:11;10.13;;;2.70;;
5173;SDS011;2606;50.934;6.934;2023-03-05T06:58:38;9.00;;;2.47;;
5173;SDS011;2606;50.934;6.934;2023-03-05T07:01:05;9.10;;;2.50;;
5173;SDS011;2606;50.934;6.934;2023-03-05T07:03:32;11.37;;;2.87;;
5173;SDS011;2606;50.934;6.934;2023-03-05T07:06:00;7.87;;;2.63;;
5173;SDS011;2606;50.934;6.934;2023-03-05T07:08:27;3.80;;;2.03;;
5173;SDS011;2606;50.934;6.934;2023-03-05T07:10:53;7.17;;;2.33;;
5173;SDS011;2606;50.934;6.934;2023-03-05T07:13:18;6.17;;;2.27;;
5173;SDS011;2606;50.934;6.934;2023-03-05T07:15:44;10.47;;;2.23;;
5173;SDS011;2606;50.934;6.934;2023-03-05T07:18:09;7.93;;;2.50;;
5173;SDS011;2606;50.934;6.934;2023-03-05T07:26:56;3.90;;;1.93;;
5173;SDS011;2606;50.934;6.934;2023-03-05T07:29:22;5.77;;;1.93;;
5173;SDS011;2606;50.934;6.934;2023-03-05T07:31:48;3.40;;;1.77;;
5173;SDS011;2606;50.934;6.934;2023-03-05T07:34:14;7.90;;;2.70;;
5173;SDS011;2606;50.934;6.934;2023-03-05T07:36:39;7.50;;;1.80;;
5173;SDS011;2606;50.934;6.934;2023-03-05T07:39:06;6.40;;;2.13;;
5173;SDS011;2606;50.934;6.934;2023-03-05T07:41:32;7.30;;;1.97;;
5173;SDS011;2606;50.934;6.934;2023-03-05T07:43:58;9.77;;;2.37;;
5173;SDS011;2606;50.934;6.934;2023-03-05T07:46:24;4.57;;;2.00;;
5173;SDS011;2606;50.934;6.934;2023-03-05T07:48:53;5.20;;;2.03;;
5173;SDS011;2606;50.934;6.934;2023-03-05T07:51:20;5.53;;;2.07;;
5173;SDS011;2606;50.934;6.934;2023-03-05T07:53:47;7.73;;;1.83;;
5173;SDS011;2606;50.934;6.934;2023-03-05T07:56:19;6.20;;;1.90;;
5173;SDS011;2606;50.934;6.934;2023-03-05T07:58:49;6.10;;;3.03;;
5173;SDS011;2606;50.934;6.934;2023-03-05T08:01:16;7.90;;;1.73;;
5173;SDS011;2606;50.934;6.934;2023-03-05T08:03:41;5.77;;;2.10;;
5173;SDS011;2606;50.934;6.934;2023-03-05T08:06:07;5.10;;;2.00;;
5173;SDS011;2606;50.934;6.934;2023-03-05T08:08:34;5.53;;;2.07;;
5173;SDS011;2606;50.934;6.934;2023-03-05T08:11:04;4.50;;;2.03;;
5173;SDS011;2606;50.934;6.934;2023-03-05T08:13:31;9.60;;;4.90;;
5173;SDS011;2606;50.934;6.934;2023-03-05T08:15:57;6.00;;;2.23;;
5173;SDS011;2606;50.934;6.934;2023-03-05T08:18:22;6.47;;;2.73;;
5173;SDS011;2606;50.934;6.934;2023-03-05T08:20:48;4.83;;;1.90;;
5173;SDS011;2606;50.934;6.934;2023-03-05T08:23:13;6.93;;;1.97;;
5173;SDS011;2606;50.934;6.934;2023-03-05T08:25:39;4.90;;;1.90;;
5173;SDS011;2606;50.934;6.934;2023-03-05T08:28:04;7.93;;;2.00;;
5173;SDS011;2606;50.934;6.934;2023-03-05T08:30:30;6.30;;;2.07;;
5173;SDS011;2606;50.934;6.934;2023-03-05T08:32:56;2.33;;;2.00;;
5173;SDS011;2606;50.934;6.934;2023-03-05T08:35:21;10.60;;;2.30;;
5173;SDS011;2606;50.934;6.934;2023-03-05T08:37:47;3.00;;;1.90;;
5173;SDS011;2606;50.934;6.934;2023-03-05T08:40:13;8.20;;;2.13;;
5173;SDS011;2606;50.934;6.934;2023-03-05T08:42:41;6.70;;;1.97;;
5173;SDS011;2606;50.934;6.934;2023-03-05T08:45:07;11.53;;;3.30;;
5173;SDS011;2606;50.934;6.934;2023-03-05T08:47:33;9.10;;;1.97;;
5173;SDS011;2606;50.934;6.934;2023-03-05T08:49:59;7.33;;;2.37;;
5173;SDS011;2606;50.934;6.934;2023-03-05T08:52:24;10.50;;;2.70;;
5173;SDS011;2606;50.934;6.934;2023-03-05T08:54:51;5.53;;;2.40;;
5173;SDS011;2606;50.934;6.934;2023-03-05T08:57:17;5.83;;;2.00;;
5173;SDS011;2606;50.934;6.934;2023-03-05T08:59:42;4.97;;;2.30;;
5173;SDS011;2606;50.934;6.934;2023-03-05T09:02:09;8.43;;;2.90;;
5173;SDS011;2606;50.934;6.934;2023-03-05T09:04:38;3.77;;;2.20;;
5173;SDS011;2606;50.934;6.934;2023-03-05T09:07:04;9.83;;;3.00;;
5173;SDS011;2606;50.934;6.934;2023-03-05T09:09:30;12.57;;;3.20;;
5173;SDS011;2606;50.934;6.934;2023-03-05T09:11:57;7.23;;;1.90;;
5173;SDS011;2606;50.934;6.934;2023-03-05T09:14:23;5.33;;;2.40;;
5173;SDS011;2606;50.934;6.934;2023-03-05T09:16:49;6.60;;;2.73;;
5173;SDS011;2606;50.934;6.934;2023-03-05T09:19:14;8.10;;;3.33;;
5173;SDS011;2606;50.934;6.934;2023-03-05T09:21:40;12.80;;;4.10;;
5173;SDS011;2606;50.934;6.934;2023-03-05T09:24:06;7.97;;;3.60;;
5173;SDS011;2606;50.934;6.934;2023-03-05T09:26:32;10.17;;;2.83;;
5173;SDS011;2606;50.934;6.934;2023-03-05T09:28:57;4.60;;;2.07;;
5173;SDS011;2606;50.934;6.934;2023-03-05T09:31:23;5.77;;;2.73;;
5173;SDS011;2606;50.934;6.934;2023-03-05T09:33:49;6.40;;;2.67;;
5173;SDS011;2606;50.934;6.934;2023-03-05T09:36:19;10.13;;;3.23;;
5173;SDS011;2606;50.934;6.934;2023-03-05T09:38:50;10.07;;;3.27;;
5173;SDS011;2606;50.934;6.934;2023-03-05T09:50:02;9.93;;;2.87;;
5173;SDS011;2606;50.934;6.934;2023-03-05T09:52:53;7.10;;;3.20;;
5173;SDS011;2606;50.934;6.934;2023-03-05T09:55:26;13.10;;;4.90;;
5173;SDS011;2606;50.934;6.934;2023-03-05T09:58:03;5.80;;;2.90;;
5173;SDS011;2606;50.934;6.934;2023-03-05T10:00:40;4.83;;;3.00;;
5173;SDS011;2606;50.934;6.934;2023-03-05T10:03:13;8.43;;;2.90;;
5173;SDS011;2606;50.934;6.934;2023-03-05T10:06:04;7.77;;;3.40;;
5173;SDS011;2606;50.934;6.934;2023-03-05T10:11:12;6.43;;;2.93;;
5173;SDS011;2606;50.934;6.934;2023-03-05T10:13:51;7.80;;;3.23;;
5173;SDS011;2606;50.934;6.934;2023-03-05T10:21:19;3.70;;;3.17;;
5173;SDS011;2606;50.934;6.934;2023-03-05T10:24:16;6.17;;;3.20;;
5173;SDS011;2606;50.934;6.934;2023-03-05T10:26:51;8.90;;;3.80;;
5173;SDS011;2606;50.934;6.934;2023-03-05T10:32:18;9.47;;;3.07;;
5173;SDS011;2606;50.934;6.934;2023-03-05T10:35:11;13.17;;;4.20;;
5173;SDS011;2606;50.934;6.934;2023-03-05T10:38:06;9.20;;;4.00;;
5173;SDS011;2606;50.934;6.934;2023-03-05T10:40:56;7.40;;;3.57;;
5173;SDS011;2606;50.934;6.934;2023-03-05T10:46:33;9.10;;;4.70;;
5173;SDS011;2606;50.934;6.934;2023-03-05T10:49:17;14.80;;;4.50;;
5173;SDS011;2606;50.934;6.934;2023-03-05T10:51:48;14.67;;;4.87;;
5173;SDS011;2606;50.934;6.934;2023-03-05T10:59:36;7.97;;;5.60;;
5173;SDS011;2606;50.934;6.934;2023-03-05T11:02:05;11.30;;;5.27;;
5173;SDS011;2606;50.934;6.934;2023-03-05T11:04:35;8.20;;;6.07;;
5173;SDS011;2606;50.934;6.934;2023-03-05T11:07:06;9.20;;;5.30;;
5173;SDS011;2606;50.934;6.934;2023-03-05T11:09:38;7.67;;;5.03;;
5173;SDS011;2606;50.934;6.934;2023-03-05T11:14:39;7.93;;;4.90;;
5173;SDS011;2606;50.934;6.934;2023-03-05T11:17:27;8.00;;;5.30;;
5173;SDS011;2606;50.934;6.934;2023-03-05T11:19:54;8.83;;;4.10;;
5173;SDS011;2606;50.934;6.934;2023-03-05T11:22:21;6.40;;;4.87;;
5173;SDS011;2606;50.934;6.934;2023-03-05T11:27:46;13.80;;;5.53;;
5173;SDS011;2606;50.934;6.934;2023-03-05T11:30:23;9.60;;;6.03;;
5173;SDS011;2606;50.934;6.934;2023-03-05T11:33:08;15.23;;;7.10;;
5173;SDS011;2606;50.934;6.934;2023-03-05T11:35:44;8.50;;;5.40;;
5173;SDS011;2606;50.934;6.934;2023-03-05T11:40:42;8.37;;;5.10;;
5173;SDS011;2606;50.934;6.934;2023-03-05T11:43:08;8.40;;;4.90;;
5173;SDS011;2606;50.934;6.934;2023-03-05T11:45:38;8.47;;;4.93;;
5173;SDS011;2606;50.934;6.934;2023-03-05T11:48:17;4.90;;;4.23;;
5173;SDS011;2606;50.934;6.934;2023-03-05T11:50:52;7.60;;;4.70;;
5173;SDS011;2606;50.934;6.934;2023-03-05T11:53:22;11.20;;;5.30;;
5173;SDS011;2606;50.934;6.934;2023-03-05T11:55:55;8.80;;;5.60;;
5173;SDS011;2606;50.934;6.934;2023-03-05T11:58:45;8.50;;;5.70;;
5173;SDS011;2606;50.934;6.934;2023-03-05T12:01:42;8.10;;;5.70;;
5173;SDS011;2606;50.934;6.934;2023-03-05T12:04:14;7.67;;;5.10;;
5173;SDS011;2606;50.934;6.934;2023-03-05T12:06:50;5.20;;;3.93;;
5173;SDS011;2606;50.934;6.934;2023-03-05T12:09:22;6.50;;;4.83;;
5173;SDS011;2606;50.934;6.934;2023-03-05T12:11:49;6.83;;;4.40;;
5173;SDS011;2606;50.934;6.934;2023-03-05T12:16:53;14.20;;;4.90;;
5173;SDS011;2606;50.934;6.934;2023-03-05T12:22:14;8.33;;;4.43;;
5173;SDS011;2606;50.934;6.934;2023-03-05T12:25:14;6.60;;;4.20;;
5173;SDS011;2606;50.934;6.934;2023-03-05T12:27:56;7.23;;;5.33;;
5173;SDS011;2606;50.934;6.934;2023-03-05T12:33:19;5.77;;;3.47;;
5173;SDS011;2606;50.934;6.934;2023-03-05T12:38:49;3.73;;;3.43;;
5173;SDS011;2606;50.934;6.934;2023-03-05T12:46:32;7.37;;;4.20;;
5173;SDS011;2606;50.934;6.934;2023-03-05T12:51:45;6.37;;;4.13;;
5173;SDS011;2606;50.934;6.934;2023-03-05T12:56:56;6.57;;;4.50;;
5173;SDS011;2606;50.934;6.934;2023-03-05T12:59:28;8.10;;;5.23;;
5173;SDS011;2606;50.934;6.934;2023-03-05T13:02:08;8.00;;;5.17;;
5173;SDS011;2606;50.934;6.934;2023-03-05T13:04:44;5.67;;;4.70;;
5173;SDS011;2606;50.934;6.934;2023-03-05T13:07:14;7.10;;;4.03;;
5173;SDS011;2606;50.934;6.934;2023-03-05T13:09:50;8.73;;;4.70;;
5173;SDS011;2606;50.934;6.934;2023-03-05T13:12:17;8.00;;;4.27;;
5173;SDS011;2606;50.934;6.934;2023-03-05T13:14:47;8.40;;;5.10;;
5173;SDS011;2606;50.934;6.934;2023-03-05T13:25:44;8.00;;;4.53;;
5173;SDS011;2606;50.934;6.934;2023-03-05T13:28:19;9.67;;;4.60;;
5173;SDS011;2606;50.934;6.934;2023-03-05T13:30:49;9.77;;;5.57;;
5173;SDS011;2606;50.934;6.934;2023-03-05T13:33:24;7.33;;;4.73;;
5173;SDS011;2606;50.934;6.934;2023-03-05T13:35:52;9.30;;;4.70;;
5173;SDS011;2606;50.934;6.934;2023-03-05T13:38:20;7.30;;;4.73;;
5173;SDS011;2606;50.934;6.934;2023-03-05T13:41:05;10.73;;;4.50;;
5173;SDS011;2606;50.934;6.934;2023-03-05T13:43:33;5.40;;;4.00;;
5173;SDS011;2606;50.934;6.934;2023-03-05T13:46:05;8.10;;;5.20;;
5173;SDS011;2606;50.934;6.934;2023-03-05T13:48:31;7.40;;;4.53;;
5173;SDS011;2606;50.934;6.934;2023-03-05T13:50:57;8.00;;;5.37;;
5173;SDS011;2606;50.934;6.934;2023-03-05T13:53:27;6.63;;;4.23;;
5173;SDS011;2606;50.934;6.934;2023-03-05T13:55:59;12.03;;;5.17;;
5173;SDS011;2606;50.934;6.934;2023-03-05T14:01:25;9.00;;;5.47;;
5173;SDS011;2606;50.934;6.934;2023-03-05T14:04:24;9.27;;;5.60;;
5173;SDS011;2606;50.934;6.934;2023-03-05T14:15:02;7.07;;;5.17;;
5173;SDS011;2606;50.934;6.934;2023-03-05T14:17:40;7.20;;;5.10;;
5173;SDS011;2606;50.934;6.934;2023-03-05T14:22:45;7.33;;;5.33;;
5173;SDS011;2606;50.934;6.934;2023-03-05T14:30:45;9.43;;;4.10;;
5173;SDS011;2606;50.934;6.934;2023-03-05T14:33:31;5.80;;;4.07;;
5173;SDS011;2606;50.934;6.934;2023-03-05T14:35:57;5.63;;;3.47;;
5173;SDS011;2606;50.934;6.934;2023-03-05T14:38:30;7.40;;;4.20;;
5173;SDS011;2606;50.934;6.934;2023-03-05T14:41:16;5.83;;;4.40;;
5173;SDS011;2606;50.934;6.934;2023-03-05T14:43:48;9.00;;;4.27;;
5173;SDS011;2606;50.934;6.934;2023-03-05T14:46:13;6.10;;;4.40;;
5173;SDS011;2606;50.934;6.934;2023-03-05T14:48:39;6.60;;;3.97;;
5173;SDS011;2606;50.934;6.934;2023-03-05T14:51:05;7.70;;;4.37;;
5173;SDS011;2606;50.934;6.934;2023-03-05T14:53:37;16.40;;;5.20;;
5173;SDS011;2606;50.934;6.934;2023-03-05T14:56:10;4.50;;;3.90;;
5173;SDS011;2606;50.934;6.934;2023-03-05T14:58:51;5.77;;;3.53;;
5173;SDS011;2606;50.934;6.934;2023-03-05T15:01:17;5.40;;;3.77;;
5173;SDS011;2606;50.934;6.934;2023-03-05T15:03:43;7.63;;;4.17;;
5173;SDS011;2606;50.934;6.934;2023-03-05T15:06:51;6.00;;;3.87;;
5173;SDS011;2606;50.934;6.934;2023-03-05T15:09:00;7.30;;;3.80;;
5173;SDS011;2606;50.934;6.934;2023-03-05T15:11:26;6.87;;;4.03;;
5173;SDS011;2606;50.934;6.934;2023-03-05T15:13:51;7.00;;;5.00;;
5173;SDS011;2606;50.934;6.934;2023-03-05T15:16:17;5.77;;;4.17;;
5173;SDS011;2606;50.934;6.934;2023-03-05T15:18:43;4.20;;;3.77;;
5173;SDS011;2606;50.934;6.934;2023-03-05T15:21:09;9.03;;;4.20;;
5173;SDS011;2606;50.934;6.934;2023-03-05T15:23:34;8.50;;;4.40;;
5173;SDS011;2606;50.934;6.934;2023-03-05T15:26:03;7.70;;;5.93;;
5173;SDS011;2606;50.934;6.934;2023-03-05T15:28:34;5.70;;;4.30;;
5173;SDS011;2606;50.934;6.934;2023-03-05T15:31:02;16.10;;;4.63;;
5173;SDS011;2606;50.934;6.934;2023-03-05T15:33:28;6.87;;;4.33;;
5173;SDS011;2606;50.934;6.934;2023-03-05T15:35:55;10.47;;;5.27;;
5173;SDS011;2606;50.934;6.934;2023-03-05T15:38:21;9.00;;;5.50;;
5173;SDS011;2606;50.934;6.934;2023-03-05T15:40:47;10.07;;;5.37;;
5173;SDS011;2606;50.934;6.934;2023-03-05T15:43:13;6.20;;;4.40;;
5173;SDS011;2606;50.934;6.934;2023-03-05T15:45:39;7.07;;;4.27;;
5173;SDS011;2606;50.934;6.934;2023-03-05T15:48:05;7.63;;;4.73;;
5173;SDS011;2606;50.934;6.934;2023-03-05T15:50:31;8.07;;;5.27;;
5173;SDS011;2606;50.934;6.934;2023-03-05T15:52:56;9.53;;;5.03;;
5173;SDS011;2606;50.934;6.934;2023-03-05T15:55:22;10.50;;;5.97;;
5173;SDS011;2606;50.934;6.934;2023-03-05T15:57:49;10.60;;;5.47;;
5173;SDS011;2606;50.934;6.934;2023-03-05T16:00:19;6.90;;;4.50;;
5173;SDS011;2606;50.934;6.934;2023-03-05T16:02:49;6.23;;;4.27;;
5173;SDS011;2606;50.934;6.934;2023-03-05T16:05:14;8.17;;;5.23;;
5173;SDS011;2606;50.934;6.934;2023-03-05T16:07:41;12.23;;;5.00;;
5173;SDS011;2606;50.934;6.934;2023-03-05T16:10:11;8.93;;;4.60;;
5173;SDS011;2606;50.934;6.934;2023-03-05T16:12:39;11.03;;;5.90;;
5173;SDS011;2606;50.934;6.934;2023-03-05T16:15:07;9.67;;;5.70;;
5173;SDS011;2606;50.934;6.934;2023-03-05T16:17:35;13.00;;;6.70;;
5173;SDS011;2606;50.934;6.934;2023-03-05T16:20:03;14.90;;;8.40;;
5173;SDS011;2606;50.934;6.934;2023-03-05T16:22:29;21.63;;;11.67;;
5173;SDS011;2606;50.934;6.934;2023-03-05T16:24:55;17.53;;;10.00;;
5173;SDS011;2606;50.934;6.934;2023-03-05T16:27:21;11.80;;;7.90;;
5173;SDS011;2606;50.934;6.934;2023-03-05T16:29:46;9.87;;;6.27;;
5173;SDS011;2606;50.934;6.934;2023-03-05T16:32:12;9.40;;;6.23;;
5173;SDS011;2606;50.934;6.934;2023-03-05T16:34:38;7.80;;;5.50;;
5173;SDS011;2606;50.934;6.934;2023-03-05T16:37:03;12.10;;;6.70;;
5173;SDS011;2606;50.934;6.934;2023-03-05T16:39:31;9.63;;;5.77;;
5173;SDS011;2606;50.934;6.934;2023-03-05T16:41:56;10.53;;;6.07;;
5173;SDS011;2606;50.934;6.934;2023-03-05T16:44:22;7.60;;;5.67;;
5173;SDS011;2606;50.934;6.934;2023-03-05T16:46:48;12.80;;;7.50;;
5173;SDS011;2606;50.934;6.934;2023-03-05T16:49:17;13.83;;;7.10;;
5173;SDS011;2606;50.934;6.934;2023-03-05T16:51:46;10.60;;;6.77;;
5173;SDS011;2606;50.934;6.934;2023-03-05T16:54:12;10.13;;;6.37;;
5173;SDS011;2606;50.934;6.934;2023-03-05T16:56:38;10.73;;;5.60;;
5173;SDS011;2606;50.934;6.934;2023-03-05T16:59:03;11.87;;;6.20;;